Sea Success — VRS4325 — position and weather

sailwx.info

Track history (hours):
 
Tides and Currents Weather Stations Pressure Air Temp Water Temp Dewpoint Dewpoint Depression Visibility Wind Speed Wind Dir Waves Ship Positions

Sea Success

Last reported at 2015-Jan-31 10:16 UTC. Time now 2015-Jan-31 11:36 UTC.
Position N 22°17' E 114°05'.

Length 27 m.

Type: High speed craft. MMSI: 477995071.

Date/timePositionNaut miles runAvg speedWind from/ knotsBaromVisibWave heightAir tempDewpointWater temp
2015-Jan-31 10:16N 22°17' E 114°05'4 2.3
2015-Jan-31 08:33N 22°17' E 114°10'7 3.3
2015-Jan-31 06:21N 22°16' E 114°02'7 9.2
2015-Jan-31 05:34N 22°17' E 114°10'0 0.0
2015-Jan-31 02:33N 22°17' E 114°10'3 2.2
2015-Jan-31 01:13N 22°17' E 114°06'3 1.8
2015-Jan-30 23:33N 22°17' E 114°10'3 2.9
2015-Jan-30 22:32N 22°17' E 114°06'0 0.0
2015-Jan-30 13:28N 22°17' E 114°06'3 1.5
2015-Jan-30 11:33N 22°17' E 114°10'3 2.0
2015-Jan-30 10:15N 22°17' E 114°07'3 4.3
2015-Jan-30 09:33N 22°17' E 114°10'0 0.5
2015-Jan-30 08:33N 22°17' E 114°10'0 0.1
2015-Jan-30 05:33N 22°17' E 114°10'7 3.4
2015-Jan-30 03:21N 22°16' E 114°02'7 9.2
2015-Jan-30 02:33N 22°17' E 114°10'3 2.3
2015-Jan-30 01:10N 22°17' E 114°06'1 2.3
2015-Jan-30 00:33N 22°17' E 114°05'4 4.5
2015-Jan-29 23:33N 22°17' E 114°09'3 2.9
2015-Jan-29 22:33N 22°17' E 114°06'2 0.2
2015-Jan-29 13:33N 22°17' E 114°04'3 2.0
2015-Jan-29 12:12N 22°16' E 114°02'711.4
2015-Jan-29 11:33N 22°17' E 114°10'7 5.9
2015-Jan-29 10:24N 22°17' E 114°02'7 3.7
2015-Jan-29 08:33N 22°17' E 114°10'1 1.0
2015-Jan-29 07:33N 22°18' E 114°09'0 0.0
2015-Jan-29 06:33N 22°18' E 114°09'0 0.0
2015-Jan-29 05:33N 22°18' E 114°09'0 0.0
2015-Jan-29 04:33N 22°18' E 114°09'0 0.0
2015-Jan-29 03:33N 22°18' E 114°09'1 1.0
2015-Jan-29 02:33N 22°17' E 114°10'2 1.4
2015-Jan-29 01:10N 22°18' E 114°08'2 1.2
2015-Jan-28 23:33N 22°17' E 114°10'4 4.1
2015-Jan-28 22:30N 22°17' E 114°05'1 0.1
2015-Jan-28 13:30N 22°17' E 114°06'3 1.7
2015-Jan-28 11:33N 22°17' E 114°10'7 7.2
2015-Jan-28 10:33N 22°16' E 114°02'7 7.1
2015-Jan-28 09:33N 22°18' E 114°09'1 0.9
2015-Jan-28 08:33N 22°17' E 114°10'8 3.4
2015-Jan-28 06:22N 22°15' E 114°02'8 9.2
2015-Jan-28 05:32N 22°17' E 114°10'0 0.0
2015-Jan-28 02:33N 22°17' E 114°10'3 2.8
2015-Jan-28 01:18N 22°17' E 114°06'2 2.4
2015-Jan-28 00:33N 22°17' E 114°04'5 5.2
2015-Jan-27 23:33N 22°17' E 114°10'5 5.0
2015-Jan-27 22:29N 22°17' E 114°04'2 0.2
2015-Jan-27 13:30N 22°17' E 114°06'3 2.7
2015-Jan-27 12:16N 22°17' E 114°02'7 9.9
2015-Jan-27 11:33N 22°17' E 114°10'7 7.0
2015-Jan-27 10:33N 22°17' E 114°02'7 7.1
2015-Jan-27 09:33N 22°19' E 114°09'1 1.4
2015-Jan-27 08:33N 22°18' E 114°09'0 0.2
2015-Jan-27 05:33N 22°17' E 114°10'8 3.4
2015-Jan-27 03:22N 22°16' E 114°02'8 9.4
2015-Jan-27 02:33N 22°17' E 114°10'4 3.2
2015-Jan-27 01:17N 22°17' E 114°05'1 1.3
2015-Jan-27 00:33N 22°17' E 114°04'5 4.9
2015-Jan-26 23:33N 22°17' E 114°10'2 2.0
2015-Jan-26 22:33N 22°17' E 114°07'3 0.3
2015-Jan-26 13:34N 22°17' E 114°04'3 1.9
2015-Jan-26 12:06N 22°16' E 114°02'713.9
2015-Jan-26 11:33N 22°17' E 114°10'7 5.6
2015-Jan-26 10:22N 22°17' E 114°02'0 0.2
2015-Jan-26 09:09N 22°17' E 114°02'711.6
2015-Jan-26 08:33N 22°17' E 114°10'7 3.1
2015-Jan-26 06:16N 22°17' E 114°02'710.0
2015-Jan-26 05:33N 22°17' E 114°09'0 0.1
2015-Jan-26 04:33N 22°17' E 114°09'0 0.0
2015-Jan-26 03:32N 22°17' E 114°09'0 0.2
2015-Jan-26 02:33N 22°17' E 114°10'4 2.6
2015-Jan-26 01:10N 22°17' E 114°06'1 1.8
2015-Jan-26 00:33N 22°17' E 114°05'5 4.8
2015-Jan-25 23:34N 22°17' E 114°10'4 4.4
2015-Jan-25 22:33N 22°17' E 114°05'3 0.3
2015-Jan-25 14:03N 22°17' E 114°02'611.4
2015-Jan-25 13:34N 22°18' E 114°08'2 1.6
2015-Jan-25 12:33N 22°17' E 114°06'5 3.5
2015-Jan-25 11:14N 22°16' E 114°02'711.0
2015-Jan-25 10:34N 22°17' E 114°10'7 6.8
2015-Jan-25 09:32N 22°17' E 114°02'7 6.7
2015-Jan-25 08:33N 22°18' E 114°09'2 1.9
2015-Jan-25 07:33N 22°17' E 114°07'2 2.2
2015-Jan-25 06:33N 22°17' E 114°09'0 0.0
2015-Jan-25 05:33N 22°17' E 114°09'7 6.9
2015-Jan-25 04:33N 22°16' E 114°02'7 6.7
2015-Jan-25 03:33N 22°18' E 114°09'3 2.6
2015-Jan-25 02:34N 22°17' E 114°06'3 3.0
2015-Jan-25 01:33N 22°18' E 114°09'1 0.9
2015-Jan-25 00:33N 22°17' E 114°09'2 2.3
2015-Jan-24 23:33N 22°20' E 114°09'5 0.5
2015-Jan-24 13:33N 22°17' E 114°04'5 2.4
2015-Jan-24 11:33N 22°17' E 114°10'7 6.0
2015-Jan-24 10:25N 22°17' E 114°02'0 0.2
2015-Jan-24 09:08N 22°17' E 114°03'711.4
2015-Jan-24 08:34N 22°17' E 114°10'7 3.2
2015-Jan-24 06:19N 22°17' E 114°02'7 9.4
2015-Jan-24 05:33N 22°17' E 114°10'7 3.2
2015-Jan-24 03:18N 22°16' E 114°02'7 9.4
2015-Jan-24 02:32N 22°17' E 114°10'4 3.4
2015-Jan-24 01:19N 22°17' E 114°05'4 2.3
2015-Jan-23 23:33N 22°17' E 114°10'2 1.4
2015-Jan-23 22:17N 22°18' E 114°08'2 0.2
2015-Jan-23 13:32N 22°17' E 114°06'4 1.9
2015-Jan-23 11:33N 22°17' E 114°10'4 2.9
2015-Jan-23 10:17N 22°17' E 114°06'4 5.0
2015-Jan-23 09:33N 22°18' E 114°09'1 1.0
2015-Jan-23 08:33N 22°17' E 114°10'7 3.3
2015-Jan-23 06:19N 22°16' E 114°02'7 9.3
2015-Jan-23 05:32N 22°17' E 114°10'0 0.0
2015-Jan-23 02:33N 22°17' E 114°10'6 4.5
2015-Jan-23 01:16N 22°17' E 114°03'1 1.2
2015-Jan-23 00:33N 22°17' E 114°04'5 5.0
2015-Jan-22 23:34N 22°17' E 114°10'6 5.7
2015-Jan-22 22:27N 22°16' E 114°03'2 0.2
2015-Jan-22 13:33N 22°17' E 114°04'2 1.8
2015-Jan-22 12:15N 22°17' E 114°02'710.2
2015-Jan-22 11:33N 22°17' E 114°10'5 3.6
2015-Jan-22 10:18N 22°17' E 114°05'5 6.4
2015-Jan-22 09:33N 22°19' E 114°09'2 1.6
2015-Jan-22 08:34N 22°18' E 114°09'7 3.4
2015-Jan-22 06:22N 22°16' E 114°02'8 9.3
2015-Jan-22 05:33N 22°17' E 114°10'0 0.0
2015-Jan-22 02:33N 22°17' E 114°10'3 2.6
2015-Jan-22 01:15N 22°17' E 114°06'3 1.9
2015-Jan-21 23:31N 22°17' E 114°10'3 2.5
2015-Jan-21 22:22N 22°17' E 114°06'0 0.0
2015-Jan-21 13:28N 22°17' E 114°06'3 1.5
2015-Jan-21 11:33N 22°17' E 114°10'  
Track history (hours):
 
Tides and Currents Weather Stations Pressure Air Temp Water Temp Dewpoint Dewpoint Depression Visibility Wind Speed Wind Dir Waves Ship Positions

Sea Success

Last reported at 2015-Jan-31 10:16 UTC. Time now 2015-Jan-31 11:36 UTC.
Position N 22°17' E 114°05'.

Length 27 m.

Type: High speed craft. MMSI: 477995071.

Date/timePositionNaut miles runAvg speedWind from/ knotsBaromVisibWave heightAir tempDewpointWater temp
2015-Jan-31 10:16N 22°17' E 114°05'4 2.3
2015-Jan-31 08:33N 22°17' E 114°10'7 3.3
2015-Jan-31 06:21N 22°16' E 114°02'7 9.2
2015-Jan-31 05:34N 22°17' E 114°10'0 0.0
2015-Jan-31 02:33N 22°17' E 114°10'3 2.2
2015-Jan-31 01:13N 22°17' E 114°06'3 1.8
2015-Jan-30 23:33N 22°17' E 114°10'3 2.9
2015-Jan-30 22:32N 22°17' E 114°06'0 0.0
2015-Jan-30 13:28N 22°17' E 114°06'3 1.5
2015-Jan-30 11:33N 22°17' E 114°10'3 2.0
2015-Jan-30 10:15N 22°17' E 114°07'3 4.3
2015-Jan-30 09:33N 22°17' E 114°10'0 0.5
2015-Jan-30 08:33N 22°17' E 114°10'0 0.1
2015-Jan-30 05:33N 22°17' E 114°10'7 3.4
2015-Jan-30 03:21N 22°16' E 114°02'7 9.2
2015-Jan-30 02:33N 22°17' E 114°10'3 2.3
2015-Jan-30 01:10N 22°17' E 114°06'1 2.3
2015-Jan-30 00:33N 22°17' E 114°05'4 4.5
2015-Jan-29 23:33N 22°17' E 114°09'3 2.9
2015-Jan-29 22:33N 22°17' E 114°06'2 0.2
2015-Jan-29 13:33N 22°17' E 114°04'3 2.0
2015-Jan-29 12:12N 22°16' E 114°02'711.4
2015-Jan-29 11:33N 22°17' E 114°10'7 5.9
2015-Jan-29 10:24N 22°17' E 114°02'7 3.7
2015-Jan-29 08:33N 22°17' E 114°10'1 1.0
2015-Jan-29 07:33N 22°18' E 114°09'0 0.0
2015-Jan-29 06:33N 22°18' E 114°09'0 0.0
2015-Jan-29 05:33N 22°18' E 114°09'0 0.0
2015-Jan-29 04:33N 22°18' E 114°09'0 0.0
2015-Jan-29 03:33N 22°18' E 114°09'1 1.0
2015-Jan-29 02:33N 22°17' E 114°10'2 1.4
2015-Jan-29 01:10N 22°18' E 114°08'2 1.2
2015-Jan-28 23:33N 22°17' E 114°10'4 4.1
2015-Jan-28 22:30N 22°17' E 114°05'1 0.1
2015-Jan-28 13:30N 22°17' E 114°06'3 1.7
2015-Jan-28 11:33N 22°17' E 114°10'7 7.2
2015-Jan-28 10:33N 22°16' E 114°02'7 7.1
2015-Jan-28 09:33N 22°18' E 114°09'1 0.9
2015-Jan-28 08:33N 22°17' E 114°10'8 3.4
2015-Jan-28 06:22N 22°15' E 114°02'8 9.2
2015-Jan-28 05:32N 22°17' E 114°10'0 0.0
2015-Jan-28 02:33N 22°17' E 114°10'3 2.8
2015-Jan-28 01:18N 22°17' E 114°06'2 2.4
2015-Jan-28 00:33N 22°17' E 114°04'5 5.2
2015-Jan-27 23:33N 22°17' E 114°10'5 5.0
2015-Jan-27 22:29N 22°17' E 114°04'2 0.2
2015-Jan-27 13:30N 22°17' E 114°06'3 2.7
2015-Jan-27 12:16N 22°17' E 114°02'7 9.9
2015-Jan-27 11:33N 22°17' E 114°10'7 7.0
2015-Jan-27 10:33N 22°17' E 114°02'7 7.1
2015-Jan-27 09:33N 22°19' E 114°09'1 1.4
2015-Jan-27 08:33N 22°18' E 114°09'0 0.2
2015-Jan-27 05:33N 22°17' E 114°10'8 3.4
2015-Jan-27 03:22N 22°16' E 114°02'8 9.4
2015-Jan-27 02:33N 22°17' E 114°10'4 3.2
2015-Jan-27 01:17N 22°17' E 114°05'1 1.3
2015-Jan-27 00:33N 22°17' E 114°04'5 4.9
2015-Jan-26 23:33N 22°17' E 114°10'2 2.0
2015-Jan-26 22:33N 22°17' E 114°07'3 0.3
2015-Jan-26 13:34N 22°17' E 114°04'3 1.9
2015-Jan-26 12:06N 22°16' E 114°02'713.9
2015-Jan-26 11:33N 22°17' E 114°10'7 5.6
2015-Jan-26 10:22N 22°17' E 114°02'0 0.2
2015-Jan-26 09:09N 22°17' E 114°02'711.6
2015-Jan-26 08:33N 22°17' E 114°10'7 3.1
2015-Jan-26 06:16N 22°17' E 114°02'710.0
2015-Jan-26 05:33N 22°17' E 114°09'0 0.1
2015-Jan-26 04:33N 22°17' E 114°09'0 0.0
2015-Jan-26 03:32N 22°17' E 114°09'0 0.2
2015-Jan-26 02:33N 22°17' E 114°10'4 2.6
2015-Jan-26 01:10N 22°17' E 114°06'1 1.8
2015-Jan-26 00:33N 22°17' E 114°05'5 4.8
2015-Jan-25 23:34N 22°17' E 114°10'4 4.4
2015-Jan-25 22:33N 22°17' E 114°05'3 0.3
2015-Jan-25 14:03N 22°17' E 114°02'611.4
2015-Jan-25 13:34N 22°18' E 114°08'2 1.6
2015-Jan-25 12:33N 22°17' E 114°06'5 3.5
2015-Jan-25 11:14N 22°16' E 114°02'711.0
2015-Jan-25 10:34N 22°17' E 114°10'7 6.8
2015-Jan-25 09:32N 22°17' E 114°02'7 6.7
2015-Jan-25 08:33N 22°18' E 114°09'2 1.9
2015-Jan-25 07:33N 22°17' E 114°07'2 2.2
2015-Jan-25 06:33N 22°17' E 114°09'0 0.0
2015-Jan-25 05:33N 22°17' E 114°09'7 6.9
2015-Jan-25 04:33N 22°16' E 114°02'7 6.7
2015-Jan-25 03:33N 22°18' E 114°09'3 2.6
2015-Jan-25 02:34N 22°17' E 114°06'3 3.0
2015-Jan-25 01:33N 22°18' E 114°09'1 0.9
2015-Jan-25 00:33N 22°17' E 114°09'2 2.3
2015-Jan-24 23:33N 22°20' E 114°09'5 0.5
2015-Jan-24 13:33N 22°17' E 114°04'5 2.4
2015-Jan-24 11:33N 22°17' E 114°10'7 6.0
2015-Jan-24 10:25N 22°17' E 114°02'0 0.2
2015-Jan-24 09:08N 22°17' E 114°03'711.4
2015-Jan-24 08:34N 22°17' E 114°10'7 3.2
2015-Jan-24 06:19N 22°17' E 114°02'7 9.4
2015-Jan-24 05:33N 22°17' E 114°10'7 3.2
2015-Jan-24 03:18N 22°16' E 114°02'7 9.4
2015-Jan-24 02:32N 22°17' E 114°10'4 3.4
2015-Jan-24 01:19N 22°17' E 114°05'4 2.3
2015-Jan-23 23:33N 22°17' E 114°10'2 1.4
2015-Jan-23 22:17N 22°18' E 114°08'2 0.2
2015-Jan-23 13:32N 22°17' E 114°06'4 1.9
2015-Jan-23 11:33N 22°17' E 114°10'4 2.9
2015-Jan-23 10:17N 22°17' E 114°06'4 5.0
2015-Jan-23 09:33N 22°18' E 114°09'1 1.0
2015-Jan-23 08:33N 22°17' E 114°10'7 3.3
2015-Jan-23 06:19N 22°16' E 114°02'7 9.3
2015-Jan-23 05:32N 22°17' E 114°10'0 0.0
2015-Jan-23 02:33N 22°17' E 114°10'6 4.5
2015-Jan-23 01:16N 22°17' E 114°03'1 1.2
2015-Jan-23 00:33N 22°17' E 114°04'5 5.0
2015-Jan-22 23:34N 22°17' E 114°10'6 5.7
2015-Jan-22 22:27N 22°16' E 114°03'2 0.2
2015-Jan-22 13:33N 22°17' E 114°04'2 1.8
2015-Jan-22 12:15N 22°17' E 114°02'710.2
2015-Jan-22 11:33N 22°17' E 114°10'5 3.6
2015-Jan-22 10:18N 22°17' E 114°05'5 6.4
2015-Jan-22 09:33N 22°19' E 114°09'2 1.6
2015-Jan-22 08:34N 22°18' E 114°09'7 3.4
2015-Jan-22 06:22N 22°16' E 114°02'8 9.3
2015-Jan-22 05:33N 22°17' E 114°10'0 0.0
2015-Jan-22 02:33N 22°17' E 114°10'3 2.6
2015-Jan-22 01:15N 22°17' E 114°06'3 1.9
2015-Jan-21 23:31N 22°17' E 114°10'3 2.5
2015-Jan-21 22:22N 22°17' E 114°06'0 0.0
2015-Jan-21 13:28N 22°17' E 114°06'3 1.5
2015-Jan-21 11:33N 22°17' E 114°10'  

Dump ship's entire track history